EST,Max TemperatureF,Mean TemperatureF,Min TemperatureF,Max Dew PointF,MeanDew PointF,Min DewpointF,Max Humidity, Mean Humidity, Min Humidity, Max Sea Level PressureIn, Mean Sea Level PressureIn, Min Sea Level PressureIn, Max VisibilityMiles, Mean VisibilityMiles, Min VisibilityMiles, Max Wind SpeedMPH, Mean Wind SpeedMPH, Max Gust SpeedMPH,PrecipitationIn, CloudCover, Events, WindDirDegrees
2013-11-1,67,59,51,53,47,41,89,66,43,29.80,29.70,29.54,10,10,7,20,9,26,0.00,3,,248
2013-11-2,58,50,42,45,40,34,89,68,47,30.14,29.94,29.81,10,10,10,20,7,24,0.01,3,Rain,288
2013-11-3,57,46,34,39,35,32,92,67,41,30.35,30.28,30.15,10,10,8,8,2,12,0.00,1,,60
2013-11-4,62,53,43,43,38,34,76,58,39,30.39,30.34,30.29,10,10,10,15,4,21,0.00,0,,140
2013-11-5,63,56,48,43,41,38,77,62,46,30.41,30.33,30.22,10,10,10,8,2,12,0.00,1,,128
2013-11-6,67,57,46,61,51,40,93,74,55,30.21,30.08,30.01,10,9,4,25,7,30,0.24,7,Rain,244
2013-11-7,51,44,37,43,33,23,92,63,33,30.34,30.24,30.13,10,10,9,14,8,18,0.06,3,Rain,303
2013-11-8,54,43,31,32,28,23,92,62,32,30.43,30.34,30.27,10,10,10,16,2,21,0.00,0,,287
2013-11-9,63,47,31,36,30,26,82,56,30,30.26,30.18,30.11,10,10,10,21,7,29,0.00,0,,211
2013-11-10,57,46,34,39,31,24,83,57,30,30.37,30.31,30.18,10,10,10,14,5,17,0.00,0,,278
2013-11-11,64,48,32,44,30,20,89,54,18,30.33,30.24,30.13,10,10,7,20,4,24,0.02,3,Rain,252
2013-11-12,44,37,30,39,25,15,92,65,37,30.68,30.47,30.25,10,8,2,24,10,31,0.05,5,Rain-Snow,356
2013-11-13,42,32,21,22,20,17,81,59,36,30.71,30.60,30.45,10,10,10,10,2,15,0.00,0,,231
2013-11-14,56,43,30,21,18,12,63,41,18,30.44,30.32,30.19,10,10,10,15,5,21,0.00,0,,184
2013-11-15,54,45,36,45,33,19,93,66,38,30.21,30.16,30.12,10,10,4,12,3,15,0.11,4,Rain,164
2013-11-16,63,56,48,56,50,45,93,86,78,30.14,30.06,29.92,10,8,3,15,7,24,0.00,8,,167
2013-11-17,69,59,49,64,58,39,100,76,52,29.89,29.77,29.59,10,6,1,22,9,29,2.63,7,Rain,179
2013-11-18,57,49,40,41,34,27,82,59,35,30.24,30.08,29.89,10,10,10,21,9,28,0.00,0,,287
2013-11-19,46,39,32,28,27,26,75,62,49,30.35,30.31,30.25,10,10,10,13,5,17,0.00,0,,27
2013-11-20,55,43,31,31,28,24,78,58,38,30.32,30.26,30.20,10,10,10,12,4,16,0.00,0,,99
2013-11-21,63,53,42,53,42,30,100,75,49,30.32,30.25,30.17,10,9,5,13,2,17,0.06,3,Rain,164
2013-11-22,57,50,42,56,48,34,100,85,70,30.40,30.26,30.18,10,8,2,17,8,23,0.03,8,Rain,302
2013-11-23,44,35,25,33,21,9,82,55,27,30.62,30.47,30.39,10,10,10,21,11,26,0.00,4,,334
2013-11-24,31,26,20,13,10,8,67,53,39,30.74,30.64,30.56,10,10,10,14,5,22,T,2,,1
2013-11-25,41,33,25,32,20,12,75,55,34,30.46,30.32,30.21,10,10,6,16,4,21,T,7,Rain-Snow,196
2013-11-26,36,35,33,34,32,30,96,89,82,30.24,30.12,29.95,10,5,2,14,2,17,0.06,8,Rain-Snow,11
2013-11-27,35,28,21,21,15,9,75,64,53,30.38,30.22,30.12,10,9,3,17,6,23,T,6,Snow,297
2013-11-28,39,29,19,18,14,10,73,54,35,30.49,30.41,30.33,10,10,10,14,4,20,0.00,0,,194
2013-11-29,46,33,20,24,21,16,84,63,41,30.65,30.57,30.50,10,10,8,7,1,9,0.00,0,,82
2013-11-30,56,41,26,27,25,22,81,57,32,30.49,30.36,30.22,10,10,10,13,3,18,0.00,0,,197